createdAt,value
2019-02-18T00:00:32.880Z,7.60
2019-02-18T00:05:34.551Z,7.33
2019-02-18T00:10:36.254Z,7.90
2019-02-18T00:15:38.064Z,7.50
2019-02-18T00:20:39.731Z,7.17
2019-02-18T00:25:41.307Z,6.87
2019-02-18T00:30:42.891Z,7.23
2019-02-18T00:35:44.583Z,7.47
2019-02-18T00:40:46.150Z,7.00
2019-02-18T00:45:47.724Z,6.83
2019-02-18T00:50:49.300Z,6.87
2019-02-18T00:55:50.865Z,7.10
2019-02-18T01:00:52.429Z,7.43
2019-02-18T01:05:53.985Z,10.03
2019-02-18T01:10:55.602Z,6.73
2019-02-18T01:15:57.161Z,7.00
2019-02-18T01:20:58.725Z,6.93
2019-02-18T01:26:00.534Z,7.03
2019-02-18T01:31:02.122Z,7.40
2019-02-18T01:36:03.732Z,7.10
2019-02-18T01:41:05.393Z,6.33
2019-02-18T01:46:07.084Z,6.47
2019-02-18T01:51:08.752Z,6.93
2019-02-18T01:56:10.324Z,6.63
2019-02-18T02:01:12.021Z,6.40
2019-02-18T02:06:13.935Z,5.93
2019-02-18T02:11:15.614Z,6.17
2019-02-18T02:16:17.313Z,6.30
2019-02-18T02:21:18.886Z,6.30
2019-02-18T02:26:20.450Z,5.97
2019-02-18T02:31:22.037Z,6.37
2019-02-18T02:36:23.617Z,6.40
2019-02-18T02:41:25.218Z,5.93
2019-02-18T02:46:26.782Z,5.93
2019-02-18T02:51:28.349Z,5.80
2019-02-18T02:56:29.918Z,6.23
2019-02-18T03:01:31.491Z,6.23
2019-02-18T03:06:33.057Z,6.07
2019-02-18T03:11:34.642Z,5.80
2019-02-18T03:16:36.242Z,5.90
2019-02-18T03:21:37.937Z,5.93
2019-02-18T03:26:39.614Z,5.93
2019-02-18T03:31:41.278Z,5.83
2019-02-18T03:36:42.894Z,5.67
2019-02-18T03:41:44.474Z,6.00
2019-02-18T03:46:46.026Z,5.47
2019-02-18T03:51:47.632Z,6.30
2019-02-18T03:56:49.230Z,5.63
2019-02-18T04:01:50.902Z,5.20
2019-02-18T04:06:52.469Z,5.93
2019-02-18T04:11:54.137Z,5.60
2019-02-18T04:16:55.700Z,5.97
2019-02-18T04:21:57.270Z,6.03
2019-02-18T04:26:58.826Z,5.40
2019-02-18T04:32:00.370Z,5.77
2019-02-18T04:37:01.941Z,5.43
2019-02-18T04:42:03.633Z,5.10
2019-02-18T04:47:05.215Z,5.90
2019-02-18T04:52:06.893Z,5.67
2019-02-18T04:57:08.464Z,5.57
2019-02-18T05:02:10.080Z,6.03
2019-02-18T05:07:11.646Z,5.53
2019-02-18T05:12:13.208Z,5.57
2019-02-18T05:17:14.773Z,5.80
2019-02-18T05:22:16.347Z,6.17
2019-02-18T05:27:17.934Z,5.67
2019-02-18T05:32:19.486Z,5.73
2019-02-18T05:37:21.044Z,6.17
2019-02-18T05:42:22.662Z,5.77
2019-02-18T05:47:24.220Z,5.67
2019-02-18T05:52:25.777Z,6.27
2019-02-18T05:57:27.351Z,5.90
2019-02-18T06:02:28.978Z,5.90
2019-02-18T06:07:30.557Z,5.83
2019-02-18T06:12:32.128Z,5.87
2019-02-18T06:17:33.697Z,5.63
2019-02-18T06:22:35.247Z,5.57
2019-02-18T06:27:36.905Z,5.97
2019-02-18T06:32:38.476Z,5.33
2019-02-18T06:37:40.042Z,5.83
2019-02-18T06:42:41.706Z,6.17
2019-02-18T06:47:43.255Z,5.20
2019-02-18T06:52:44.809Z,6.57
2019-02-18T06:58:04.689Z,5.67
2019-02-18T07:03:20.354Z,6.10
2019-02-18T07:08:31.367Z,5.73
2019-02-18T07:13:32.939Z,5.87
2019-02-18T07:18:34.510Z,5.53
2019-02-18T07:23:36.179Z,6.53
2019-02-18T07:28:37.742Z,6.27
2019-02-18T07:33:39.285Z,6.10
2019-02-18T07:38:40.854Z,5.90
2019-02-18T07:43:42.521Z,5.80
2019-02-18T07:48:44.087Z,5.97
2019-02-18T07:53:45.640Z,9.60
2019-02-18T07:58:47.214Z,6.70
2019-02-18T08:03:48.779Z,6.10
2019-02-18T08:08:50.390Z,6.23
2019-02-18T08:13:51.967Z,7.37
2019-02-18T08:18:53.530Z,6.40
2019-02-18T08:24:00.184Z,6.90
2019-02-18T08:28:58.605Z,6.40
2019-02-18T08:34:00.171Z,5.97
2019-02-18T08:39:01.746Z,6.17
2019-02-18T08:44:03.412Z,6.33
2019-02-18T08:49:04.980Z,6.17
2019-02-18T08:54:06.559Z,5.70
2019-02-18T08:59:08.237Z,5.70
2019-02-18T09:04:09.798Z,5.87
2019-02-18T09:09:11.463Z,5.87
2019-02-18T09:14:13.023Z,5.83
2019-02-18T09:19:14.587Z,6.40
2019-02-18T09:24:20.235Z,6.47
2019-02-18T09:29:21.760Z,5.40
2019-02-18T09:34:23.344Z,5.97
2019-02-18T09:39:31.166Z,6.33
2019-02-18T09:44:28.404Z,6.37
2019-02-18T09:49:29.984Z,6.00
2019-02-18T09:54:31.550Z,6.47
2019-02-18T09:59:33.110Z,6.70
2019-02-18T10:04:34.666Z,6.43
2019-02-18T10:09:36.224Z,5.67
2019-02-18T10:14:37.929Z,6.40
2019-02-18T10:19:39.654Z,6.60
2019-02-18T10:24:50.738Z,6.47
2019-02-18T10:29:44.816Z,6.70
2019-02-18T10:34:46.585Z,6.97
2019-02-18T10:39:48.182Z,6.37
2019-02-18T10:44:49.751Z,7.13
2019-02-18T10:49:51.509Z,6.40
2019-02-18T10:54:53.100Z,6.47
2019-02-18T10:59:54.681Z,7.03
2019-02-18T11:04:56.257Z,6.90
2019-02-18T11:09:57.844Z,7.03
2019-02-18T11:14:59.499Z,7.43
2019-02-18T11:20:01.190Z,7.97
2019-02-18T11:25:03.302Z,7.00
2019-02-18T11:30:06.917Z,7.07
2019-02-18T11:35:09.238Z,7.10
2019-02-18T11:40:12.293Z,6.70
2019-02-18T11:45:14.170Z,7.12
2019-02-18T11:50:15.920Z,7.17
2019-02-18T11:55:17.494Z,6.92
2019-02-18T12:00:19.533Z,7.70
2019-02-18T12:05:21.326Z,7.95
2019-02-18T12:10:23.004Z,7.72
2019-02-18T12:15:24.682Z,7.95
2019-02-18T12:20:26.277Z,7.92
2019-02-18T12:25:27.898Z,7.92
2019-02-18T12:30:29.581Z,7.80
2019-02-18T12:35:31.266Z,8.15
2019-02-18T12:40:34.854Z,9.50
2019-02-18T12:45:37.280Z,8.53
2019-02-18T12:50:38.978Z,9.03
2019-02-18T12:55:40.683Z,8.78
2019-02-18T13:00:42.357Z,7.92
2019-02-18T13:05:43.967Z,7.80
2019-02-18T13:10:45.780Z,8.33
2019-02-18T13:15:47.454Z,8.33
2019-02-18T13:20:49.144Z,9.03
2019-02-18T13:25:50.898Z,8.65
2019-02-18T13:30:52.463Z,8.05
2019-02-18T13:35:54.051Z,8.03
2019-02-18T13:40:55.727Z,7.90
2019-02-18T13:45:57.303Z,8.05
2019-02-18T13:50:58.899Z,7.53
2019-02-18T13:56:00.583Z,7.03
2019-02-18T14:01:02.270Z,7.92
2019-02-18T14:06:04.337Z,7.08
2019-02-18T14:11:06.019Z,7.28
2019-02-18T14:16:07.658Z,6.78
2019-02-18T14:21:09.349Z,6.15
2019-02-18T14:26:11.022Z,6.58
2019-02-18T14:31:13.222Z,6.03
2019-02-18T14:36:14.833Z,6.25
2019-02-18T14:41:16.521Z,6.62
2019-02-18T14:46:18.209Z,6.40
2019-02-18T14:51:19.764Z,7.90
2019-02-18T14:56:21.525Z,10.50
2019-02-18T15:01:23.208Z,6.58
2019-02-18T15:06:24.894Z,7.37
2019-02-18T15:11:26.672Z,6.92
2019-02-18T15:16:28.284Z,7.53
2019-02-18T15:21:29.851Z,6.05
2019-02-18T15:26:31.535Z,6.50
2019-02-18T15:31:33.115Z,6.90
2019-02-18T15:36:34.829Z,6.50
2019-02-18T15:41:36.418Z,6.58
2019-02-18T15:46:37.992Z,7.33
2019-02-18T15:51:39.589Z,7.95
2019-02-18T15:56:41.275Z,6.72
2019-02-18T16:01:43.049Z,7.08
2019-02-18T16:06:44.626Z,7.10
2019-02-18T16:11:46.191Z,6.97
2019-02-18T16:16:48.085Z,7.58
2019-02-18T16:21:49.666Z,8.13
2019-02-18T16:26:51.250Z,9.10
2019-02-18T16:31:52.844Z,10.55
2019-02-18T16:36:54.437Z,9.90
2019-02-18T16:41:56.017Z,7.60
2019-02-18T16:46:57.713Z,7.33
2019-02-18T16:51:59.321Z,8.00
2019-02-18T16:57:01.092Z,8.03
2019-02-18T17:02:02.945Z,8.33
2019-02-18T17:07:04.521Z,8.40
2019-02-18T17:12:06.220Z,7.90
2019-02-18T17:17:07.870Z,7.90
2019-02-18T17:22:09.438Z,16.33
2019-02-18T17:27:11.022Z,18.07
2019-02-18T17:32:12.614Z,20.37
2019-02-18T17:37:14.568Z,16.80
2019-02-18T17:42:16.243Z,13.90
2019-02-18T17:47:17.981Z,13.30
2019-02-18T17:52:19.650Z,12.67
2019-02-18T17:57:21.230Z,15.47
2019-02-18T18:02:22.910Z,13.17
2019-02-18T18:07:24.462Z,11.23
2019-02-18T18:12:26.023Z,11.43
2019-02-18T18:17:27.881Z,13.10
2019-02-18T18:22:29.599Z,12.27
2019-02-18T18:27:31.192Z,9.77
2019-02-18T18:32:32.762Z,11.90
2019-02-18T18:37:34.344Z,13.07
2019-02-18T18:42:36.030Z,8.47
2019-02-18T18:47:37.702Z,7.07
2019-02-18T18:52:39.262Z,6.43
2019-02-18T18:57:40.832Z,7.27
2019-02-18T19:02:42.432Z,6.67
2019-02-18T19:07:44.119Z,6.53
2019-02-18T19:12:45.720Z,7.00
2019-02-18T19:17:47.397Z,7.13
2019-02-18T19:22:49.213Z,6.77
2019-02-18T19:27:50.783Z,7.17
2019-02-18T19:32:52.517Z,8.77
2019-02-18T19:37:54.218Z,6.97
2019-02-18T19:42:55.872Z,7.60
2019-02-18T19:47:57.873Z,7.30
2019-02-18T19:52:59.432Z,6.87
2019-02-18T19:58:01.052Z,7.10
2019-02-18T20:03:02.619Z,7.30
2019-02-18T20:08:04.363Z,6.73
2019-02-18T20:13:06.446Z,7.97
2019-02-18T20:18:08.045Z,6.53
2019-02-18T20:23:09.637Z,7.27
2019-02-18T20:28:11.213Z,7.23
2019-02-18T20:33:12.797Z,7.30
2019-02-18T20:38:14.806Z,7.43
2019-02-18T20:43:16.391Z,7.43
2019-02-18T20:48:17.940Z,7.37
2019-02-18T20:53:19.519Z,7.23
2019-02-18T20:58:21.082Z,7.10
2019-02-18T21:03:22.660Z,7.47
2019-02-18T21:08:24.230Z,7.70
2019-02-18T21:13:25.984Z,7.77
2019-02-18T21:18:28.039Z,8.17
2019-02-18T21:23:29.619Z,8.07
2019-02-18T21:28:31.364Z,7.30
2019-02-18T21:33:32.958Z,8.50
2019-02-18T21:38:34.577Z,7.60
2019-02-18T21:43:36.268Z,7.37
2019-02-18T21:48:37.846Z,7.17
2019-02-18T21:53:39.456Z,7.47
2019-02-18T21:58:41.224Z,8.27
2019-02-18T22:03:42.803Z,7.47
2019-02-18T22:08:44.372Z,7.27
2019-02-18T22:13:45.958Z,7.93
2019-02-18T22:18:47.532Z,10.93
2019-02-18T22:23:49.092Z,8.50
2019-02-18T22:28:50.680Z,8.30
2019-02-18T22:33:52.288Z,8.57
2019-02-18T22:38:53.873Z,9.30
2019-02-18T22:43:55.454Z,8.87
2019-02-18T22:48:57.017Z,8.73
2019-02-18T22:53:59.026Z,9.13
2019-02-18T22:59:00.600Z,9.40
2019-02-18T23:04:02.476Z,9.40
2019-02-18T23:09:06.486Z,8.80
2019-02-18T23:14:08.165Z,8.70
2019-02-18T23:19:09.758Z,9.83
2019-02-18T23:24:11.336Z,10.57
2019-02-18T23:29:12.953Z,11.93
2019-02-18T23:34:14.614Z,11.53
2019-02-18T23:39:16.262Z,12.50
2019-02-18T23:44:17.869Z,10.73
2019-02-18T23:49:19.476Z,9.43
2019-02-18T23:54:21.040Z,9.67
2019-02-18T23:59:22.606Z,9.07
